Time;durP1;ratioP1;P1;durP2;ratioP2;P2;SDS_P1;SDS_P2;PMS_P1;PMS_P2;Temp;Humidity;BMP_temperature;BMP_pressure;BME280_temperature;BME280_humidity;BME280_pressure;Samples;Min_cycle;Max_cycle;Signal;HPM_P1;HPM_P2
2022/05/01 00:00:01;;;;;;;11.70;9.90;;;5.30;85.90;;;;;;5053275;28;20418;-43
2022/05/01 00:02:28;;;;;;;10.18;9.02;;;5.30;86.00;;;;;;5045810;28;20037;-46
2022/05/01 00:04:55;;;;;;;13.10;10.82;;;5.20;86.20;;;;;;5054142;28;20142;-42
2022/05/01 00:07:22;;;;;;;10.43;8.90;;;5.20;86.00;;;;;;5052579;28;20041;-43
2022/05/01 00:09:53;;;;;;;12.45;9.98;;;5.20;85.90;;;;;;5052131;28;20033;-43
2022/05/01 00:12:21;;;;;;;12.25;10.02;;;5.20;85.70;;;;;;5055263;28;20334;-43
2022/05/01 00:14:51;;;;;;;25.30;11.40;;;5.20;85.60;;;;;;5053854;28;20053;-44
2022/05/01 00:17:18;;;;;;;13.73;9.40;;;5.10;85.70;;;;;;5053955;28;20025;-46
2022/05/01 00:19:45;;;;;;;12.35;10.27;;;5.10;86.00;;;;;;5053571;28;20051;-42
2022/05/01 00:22:12;;;;;;;15.05;10.43;;;5.10;85.70;;;;;;5033243;28;20025;-43
2022/05/01 00:24:38;;;;;;;12.88;10.35;;;5.00;85.80;;;;;;5016201;28;20072;-42
2022/05/01 00:27:05;;;;;;;12.18;10.38;;;5.00;85.70;;;;;;5047443;28;20091;-42
2022/05/01 00:29:34;;;;;;;12.23;10.40;;;5.00;85.90;;;;;;5053101;28;20029;-42
2022/05/01 00:32:04;;;;;;;13.63;10.68;;;5.00;85.70;;;;;;5052153;28;20045;-42
2022/05/01 00:37:17;;;;;;;11.35;10.15;;;4.90;85.80;;;;;;5053238;28;20040;-43
2022/05/01 00:39:43;;;;;;;11.40;9.70;;;4.90;85.70;;;;;;5034627;28;20028;-43
2022/05/01 00:42:10;;;;;;;14.57;10.95;;;4.90;85.70;;;;;;5036781;28;20040;-42
2022/05/01 00:44:39;;;;;;;12.63;10.38;;;4.80;85.70;;;;;;5052956;28;20033;-45
2022/05/01 00:47:06;;;;;;;13.38;9.70;;;4.80;85.70;;;;;;5054063;28;20036;-41
2022/05/01 00:49:32;;;;;;;13.13;9.40;;;4.80;85.70;;;;;;5052824;28;20029;-44
2022/05/01 00:52:22;;;;;;;13.40;9.52;;;4.70;85.70;;;;;;5052376;28;20124;-43
2022/05/01 00:54:51;;;;;;;11.27;9.18;;;4.70;86.00;;;;;;5053538;28;20082;-44
2022/05/01 00:57:18;;;;;;;12.45;8.95;;;4.70;86.10;;;;;;5049734;28;20033;-42
2022/05/01 00:59:47;;;;;;;10.85;8.43;;;4.70;86.30;;;;;;5034282;28;20030;-44
2022/05/01 01:02:16;;;;;;;12.93;9.18;;;4.70;86.10;;;;;;5051452;28;20033;-45
2022/05/01 01:04:42;;;;;;;12.93;9.82;;;4.70;86.10;;;;;;5030639;28;20031;-44
2022/05/01 01:07:14;;;;;;;12.02;9.32;;;4.60;86.10;;;;;;5030923;28;20029;-42
2022/05/01 01:09:40;;;;;;;13.00;9.55;;;4.60;86.20;;;;;;5054207;28;20350;-43
2022/05/01 01:15:13;;;;;;;12.55;9.00;;;4.50;86.20;;;;;;5050441;28;20083;-42
2022/05/01 01:17:42;;;;;;;11.63;9.80;;;4.50;86.10;;;;;;5039843;28;20040;-44
2022/05/01 01:20:11;;;;;;;12.55;9.90;;;4.50;85.90;;;;;;5034873;28;20050;-44
2022/05/01 01:22:39;;;;;;;12.88;10.18;;;4.50;86.10;;;;;;5052985;28;20029;-43
2022/05/01 01:25:11;;;;;;;13.88;10.10;;;4.50;86.30;;;;;;5051358;28;20054;-41
2022/05/01 01:27:38;;;;;;;13.65;10.75;;;4.50;86.20;;;;;;5052449;28;20028;-42
2022/05/01 01:32:54;;;;;;;14.10;11.38;;;4.40;86.20;;;;;;5053572;28;20095;-43
2022/05/01 01:35:27;;;;;;;14.85;12.15;;;4.40;86.10;;;;;;5050395;28;20091;-43
2022/05/01 01:37:56;;;;;;;17.40;12.77;;;4.40;86.30;;;;;;5036688;28;20032;-43
2022/05/01 01:40:42;;;;;;;13.97;11.63;;;4.40;86.40;;;;;;5052109;28;20036;-44
2022/05/01 01:43:11;;;;;;;16.38;12.85;;;4.40;86.20;;;;;;5053253;28;20040;-46
2022/05/01 01:45:41;;;;;;;14.30;11.73;;;4.30;86.10;;;;;;5050837;28;20025;-43
2022/05/01 01:48:25;;;;;;;13.95;11.50;;;4.30;86.10;;;;;;5053891;28;20037;-43
2022/05/01 01:51:09;;;;;;;12.63;10.63;;;4.30;86.00;;;;;;5050296;28;20564;-45
2022/05/01 01:53:36;;;;;;;13.65;10.73;;;4.20;86.10;;;;;;5051890;28;20029;-43
2022/05/01 01:56:04;;;;;;;13.85;11.63;;;4.20;86.10;;;;;;5043820;28;20030;-42
2022/05/01 01:58:31;;;;;;;14.95;10.25;;;4.20;86.10;;;;;;5033191;28;20033;-44
2022/05/01 02:00:59;;;;;;;14.48;11.23;;;4.20;86.20;;;;;;5033890;28;20052;-43
2022/05/01 02:03:26;;;;;;;13.30;11.55;;;4.20;86.20;;;;;;5020139;28;20017;-42
2022/05/01 02:05:52;;;;;;;13.35;11.38;;;4.20;86.20;;;;;;5033779;28;20041;-44
2022/05/01 02:08:18;;;;;;;13.60;11.50;;;4.20;86.00;;;;;;5020444;28;20496;-46
2022/05/01 02:10:46;;;;;;;15.82;11.90;;;4.20;85.90;;;;;;5034487;28;20033;-41
2022/05/01 02:13:14;;;;;;;13.32;11.93;;;4.10;85.80;;;;;;5048270;28;20025;-45
2022/05/01 02:15:44;;;;;;;12.48;10.70;;;4.10;86.10;;;;;;5034615;28;20037;-44
2022/05/01 02:18:11;;;;;;;13.70;10.55;;;4.10;86.20;;;;;;5032804;28;20022;-42
2022/05/01 02:23:27;;;;;;;15.75;11.63;;;4.00;85.90;;;;;;5032310;28;20464;-43
2022/05/01 02:25:53;;;;;;;14.25;11.68;;;4.00;86.20;;;;;;5033077;28;20044;-41
2022/05/01 02:28:20;;;;;;;12.57;10.73;;;4.00;86.10;;;;;;5038991;28;20044;-42
2022/05/01 02:30:51;;;;;;;14.65;10.88;;;4.00;86.10;;;;;;5035103;28;20140;-41
2022/05/01 02:33:22;;;;;;;13.70;10.43;;;4.00;86.00;;;;;;5051182;28;20032;-43
2022/05/01 02:35:51;;;;;;;11.07;9.50;;;4.00;86.10;;;;;;5047788;28;20029;-44
2022/05/01 02:38:18;;;;;;;12.83;11.33;;;4.00;86.00;;;;;;5036854;28;20029;-45
2022/05/01 02:40:45;;;;;;;11.88;9.88;;;4.00;86.30;;;;;;5050367;28;20387;-43
2022/05/01 02:43:11;;;;;;;12.57;11.27;;;4.00;86.00;;;;;;5035632;28;20115;-43
2022/05/01 02:45:39;;;;;;;13.05;10.35;;;4.00;86.10;;;;;;5051706;28;20397;-43
2022/05/01 02:48:06;;;;;;;12.23;10.40;;;3.90;86.10;;;;;;5051177;28;20022;-44
2022/05/01 02:50:36;;;;;;;14.05;12.20;;;4.00;86.30;;;;;;5050871;28;20029;-41
2022/05/01 02:53:05;;;;;;;15.18;11.60;;;4.00;86.10;;;;;;5033548;28;21666;-40
2022/05/01 02:55:35;;;;;;;13.63;11.75;;;4.00;86.20;;;;;;5020502;28;20457;-44
2022/05/01 02:58:02;;;;;;;13.57;10.27;;;4.00;86.20;;;;;;5046067;28;20033;-44
2022/05/01 03:00:29;;;;;;;12.30;10.57;;;3.90;85.90;;;;;;5047434;28;20052;-43
2022/05/01 03:03:00;;;;;;;12.60;10.05;;;3.90;86.00;;;;;;5035622;28;20168;-42
2022/05/01 03:05:27;;;;;;;13.20;10.02;;;3.90;85.90;;;;;;5046393;28;20025;-44
2022/05/01 03:07:55;;;;;;;10.95;8.85;;;3.90;86.20;;;;;;5054946;28;20238;-41
2022/05/01 03:10:23;;;;;;;9.98;8.82;;;3.90;86.00;;;;;;5054435;28;20028;-43
2022/05/01 03:12:50;;;;;;;9.73;8.48;;;3.80;86.00;;;;;;5069507;28;20025;-42
2022/05/01 03:15:19;;;;;;;10.65;8.52;;;3.70;85.70;;;;;;5052373;28;20029;-42
2022/05/01 03:23:16;;;;;;;9.15;7.95;;;3.60;85.80;;;;;;5055722;28;20090;-42
2022/05/01 03:25:43;;;;;;;9.20;7.85;;;3.60;85.80;;;;;;5053770;28;20442;-41
2022/05/01 03:28:10;;;;;;;11.48;9.35;;;3.50;85.90;;;;;;5051633;28;20037;-41
2022/05/01 03:30:37;;;;;;;10.18;8.02;;;3.50;85.80;;;;;;5035919;28;20079;-42
2022/05/01 03:33:05;;;;;;;11.05;9.40;;;3.40;85.90;;;;;;5054341;28;20030;-41
2022/05/01 03:35:36;;;;;;;14.07;9.35;;;3.40;86.20;;;;;;5044761;28;20515;-41
2022/05/01 03:38:08;;;;;;;11.35;9.65;;;3.40;86.00;;;;;;5044929;28;20037;-42
2022/05/01 03:40:35;;;;;;;11.75;9.02;;;3.40;86.10;;;;;;5051103;28;20461;-41
2022/05/01 03:43:03;;;;;;;11.38;9.32;;;3.40;86.20;;;;;;5054670;28;20445;-40
2022/05/01 03:45:30;;;;;;;14.02;10.38;;;3.40;86.30;;;;;;5053969;28;20108;-41
2022/05/01 03:47:55;;;;;;;13.57;10.35;;;3.40;86.40;;;;;;5045943;28;20040;-41
2022/05/01 03:50:24;;;;;;;13.02;9.77;;;3.40;86.40;;;;;;5038210;28;20021;-42
2022/05/01 03:52:51;;;;;;;12.48;10.25;;;3.40;86.50;;;;;;5055645;28;20052;-41
2022/05/01 03:55:18;;;;;;;14.73;10.95;;;3.50;86.50;;;;;;5049674;28;20037;-41
2022/05/01 03:57:45;;;;;;;12.77;10.52;;;3.50;86.40;;;;;;5035577;28;20080;-41
2022/05/01 04:00:18;;;;;;;13.38;10.90;;;3.50;86.30;;;;;;5037087;28;20028;-41
2022/05/01 04:02:44;;;;;;;13.15;10.07;;;3.50;86.30;;;;;;5035560;28;20076;-42
2022/05/01 04:05:14;;;;;;;12.18;10.20;;;3.50;86.30;;;;;;5049531;28;20040;-40
2022/05/01 04:07:44;;;;;;;11.95;10.13;;;3.50;86.40;;;;;;5034633;28;20433;-41
2022/05/01 04:10:12;;;;;;;13.38;10.68;;;3.60;86.50;;;;;;5017625;28;20112;-41
2022/05/01 04:12:56;;;;;;;13.20;10.80;;;3.60;86.60;;;;;;5034821;28;20033;-41
2022/05/01 04:15:23;;;;;;;11.80;10.18;;;3.70;86.60;;;;;;5033620;28;20443;-42
2022/05/01 04:17:53;;;;;;;11.45;10.20;;;3.80;86.60;;;;;;5034321;28;20124;-41
2022/05/01 04:20:20;;;;;;;13.82;9.68;;;3.80;86.50;;;;;;5033587;28;20409;-41
2022/05/01 04:22:50;;;;;;;12.02;10.82;;;3.90;86.50;;;;;;5034609;28;20025;-42
2022/05/01 04:25:29;;;;;;;12.20;10.32;;;3.90;86.50;;;;;;5035018;28;20457;-40
2022/05/01 04:28:00;;;;;;;10.95;9.85;;;3.90;86.20;;;;;;5035327;28;20087;-41
2022/05/01 04:30:28;;;;;;;10.85;9.63;;;3.90;86.30;;;;;;5034492;28;20029;-44
2022/05/01 04:33:04;;;;;;;11.15;8.75;;;3.90;86.10;;;;;;5034547;28;20053;-40
2022/05/01 04:35:34;;;;;;;10.27;9.23;;;3.90;86.00;;;;;;5034575;28;20029;-41
2022/05/01 04:38:04;;;;;;;10.13;9.00;;;3.90;86.10;;;;;;5033551;28;20037;-40
2022/05/01 04:40:34;;;;;;;9.90;8.90;;;3.90;86.00;;;;;;5034371;28;20116;-41
2022/05/01 04:43:07;;;;;;;10.60;9.50;;;3.90;86.20;;;;;;5034241;28;20428;-41
2022/05/01 04:45:36;;;;;;;9.27;8.20;;;4.00;86.40;;;;;;5034220;28;20060;-41
2022/05/01 04:48:08;;;;;;;10.38;9.38;;;4.10;86.40;;;;;;5033883;28;20041;-41
2022/05/01 04:50:34;;;;;;;10.35;9.25;;;4.10;86.30;;;;;;5034388;28;20037;-42
2022/05/01 04:53:06;;;;;;;11.32;9.13;;;4.20;86.50;;;;;;5052465;28;20121;-41
2022/05/01 04:55:33;;;;;;;10.27;9.20;;;4.50;86.70;;;;;;5047529;28;20516;-41
2022/05/01 04:57:59;;;;;;;10.52;9.43;;;4.90;86.40;;;;;;5037051;28;20319;-41
2022/05/01 05:00:27;;;;;;;9.93;8.93;;;5.10;85.60;;;;;;5048268;28;20029;-41
2022/05/01 05:02:56;;;;;;;8.93;8.02;;;5.40;85.10;;;;;;5039438;28;20039;-40
2022/05/01 05:05:23;;;;;;;9.13;8.20;;;5.60;84.20;;;;;;5052704;28;20032;-42
2022/05/01 05:07:50;;;;;;;9.40;8.50;;;5.80;83.80;;;;;;5053239;28;20049;-42
2022/05/01 05:10:17;;;;;;;11.27;8.20;;;5.90;83.60;;;;;;5052756;28;20529;-40
2022/05/01 05:12:47;;;;;;;10.02;8.43;;;6.10;83.30;;;;;;5051729;28;20036;-42
2022/05/01 05:15:20;;;;;;;10.45;9.15;;;6.20;82.40;;;;;;5046346;28;20025;-42
2022/05/01 05:17:48;;;;;;;10.65;9.55;;;6.40;82.30;;;;;;5052623;28;20025;-42
2022/05/01 05:20:14;;;;;;;10.82;9.73;;;6.50;81.70;;;;;;5051806;28;20058;-41
2022/05/01 05:22:42;;;;;;;11.38;9.75;;;6.60;81.90;;;;;;5034394;28;20120;-41
2022/05/01 05:25:10;;;;;;;10.82;9.38;;;6.90;82.30;;;;;;5050467;28;20051;-41
2022/05/01 05:27:37;;;;;;;10.32;9.23;;;7.00;81.60;;;;;;5043231;28;20033;-42
2022/05/01 05:30:04;;;;;;;11.40;9.98;;;7.20;81.40;;;;;;5051948;28;20021;-41
2022/05/01 05:32:29;;;;;;;11.95;10.60;;;7.40;80.60;;;;;;5053886;28;20104;-42
2022/05/01 05:34:55;;;;;;;9.43;8.43;;;7.60;80.60;;;;;;5033634;28;20505;-43
2022/05/01 05:37:22;;;;;;;10.27;9.05;;;7.90;80.70;;;;;;5034419;28;20025;-43
2022/05/01 05:39:49;;;;;;;9.85;8.48;;;8.20;79.80;;;;;;5051850;28;20122;-42
2022/05/01 05:42:18;;;;;;;9.45;8.23;;;8.40;79.60;;;;;;5053690;28;20048;-42
2022/05/01 05:44:44;;;;;;;9.50;8.50;;;8.50;79.30;;;;;;5050421;28;20048;-43
2022/05/01 05:47:11;;;;;;;9.60;8.23;;;8.80;79.60;;;;;;5045175;28;20476;-42
2022/05/01 05:49:38;;;;;;;12.32;8.43;;;8.90;78.20;;;;;;5035969;28;20035;-43
2022/05/01 05:52:05;;;;;;;9.25;8.35;;;9.00;78.00;;;;;;5038281;28;20060;-42
2022/05/01 05:54:34;;;;;;;9.75;8.02;;;8.90;77.60;;;;;;5013020;28;20030;-44
2022/05/01 05:57:01;;;;;;;8.67;7.87;;;9.00;78.30;;;;;;5044983;28;20029;-43
2022/05/01 05:59:28;;;;;;;9.32;6.82;;;9.10;78.10;;;;;;5012956;28;20025;-42
2022/05/01 06:01:53;;;;;;;9.23;8.23;;;9.10;77.80;;;;;;5011920;28;20037;-44
2022/05/01 06:04:19;;;;;;;8.77;7.80;;;9.10;78.40;;;;;;5016364;28;20044;-45
2022/05/01 06:06:45;;;;;;;9.55;8.55;;;9.00;77.80;;;;;;5013190;28;20463;-43
2022/05/01 06:09:11;;;;;;;10.52;8.10;;;9.00;79.30;;;;;;5042166;28;20030;-43
2022/05/01 06:11:37;;;;;;;11.68;9.55;;;9.00;79.10;;;;;;5037381;28;20022;-43
2022/05/01 06:14:04;;;;;;;13.73;9.05;;;9.10;79.30;;;;;;5005573;28;20048;-42
2022/05/01 06:16:32;;;;;;;11.18;8.80;;;9.10;80.00;;;;;;5012619;28;20026;-43
2022/05/01 06:18:59;;;;;;;9.07;8.07;;;9.10;80.00;;;;;;5013239;28;20447;-44
2022/05/01 06:21:26;;;;;;;9.23;7.85;;;9.20;80.30;;;;;;5010346;28;20029;-45
2022/05/01 06:23:53;;;;;;;10.52;8.35;;;9.30;80.80;;;;;;5012643;28;20034;-43
2022/05/01 06:26:19;;;;;;;14.00;9.07;;;9.30;80.50;;;;;;5010732;28;20072;-43
2022/05/01 06:28:47;;;;;;;9.13;8.23;;;9.40;80.80;;;;;;5013348;28;20062;-44
2022/05/01 06:31:15;;;;;;;11.75;8.70;;;9.40;81.40;;;;;;5012069;28;20022;-43
2022/05/01 06:33:47;;;;;;;9.35;7.43;;;9.40;81.60;;;;;;5044948;28;20041;-44
2022/05/01 06:36:15;;;;;;;9.38;8.00;;;9.50;82.00;;;;;;5014687;28;20029;-43
2022/05/01 06:38:45;;;;;;;10.07;7.82;;;9.50;82.10;;;;;;5012702;28;20031;-44
2022/05/01 06:41:15;;;;;;;9.25;7.07;;;9.60;82.30;;;;;;5016506;28;20021;-44
2022/05/01 06:43:42;;;;;;;8.35;5.47;;;9.60;82.00;;;;;;5016302;28;20459;-47
2022/05/01 06:46:09;;;;;;;6.18;4.50;;;9.50;81.40;;;;;;4997638;28;20038;-43
2022/05/01 06:48:36;;;;;;;6.80;5.43;;;9.60;80.90;;;;;;5016050;28;20744;-45
2022/05/01 06:51:04;;;;;;;8.35;5.32;;;9.70;80.20;;;;;;5018614;28;20475;-45
2022/05/01 06:53:29;;;;;;;8.10;4.43;;;9.80;80.80;;;;;;5034010;28;20410;-42
2022/05/01 06:55:59;;;;;;;7.00;4.20;;;9.70;78.90;;;;;;5031103;28;20026;-44
2022/05/01 06:58:26;;;;;;;;;;;9.70;77.00;;;;;;5035642;28;20037;-44
2022/05/01 07:00:55;;;;;;;5.47;3.58;;;9.70;77.80;;;;;;5050797;28;19923;-44
2022/05/01 07:03:21;;;;;;;8.18;3.30;;;9.80;77.70;;;;;;5048758;28;20030;-43
2022/05/01 07:05:48;;;;;;;6.72;3.70;;;10.00;77.70;;;;;;5035634;28;20051;-44
2022/05/01 07:08:17;;;;;;;5.07;3.75;;;10.10;76.60;;;;;;5035949;28;20033;-46
2022/05/01 07:10:44;;;;;;;6.70;4.15;;;10.10;76.70;;;;;;5035499;28;20522;-43
2022/05/01 07:13:11;;;;;;;6.75;4.13;;;10.40;76.70;;;;;;5035445;28;20786;-44
2022/05/01 07:15:38;;;;;;;8.13;3.80;;;10.40;74.60;;;;;;5035863;28;20029;-44
2022/05/01 07:18:06;;;;;;;6.82;3.42;;;10.40;74.30;;;;;;5035102;28;20312;-44
2022/05/01 07:20:34;;;;;;;5.43;3.40;;;10.40;73.10;;;;;;5022698;28;20369;-44
2022/05/01 07:23:03;;;;;;;6.60;3.80;;;10.40;73.50;;;;;;5052694;28;20033;-47
2022/05/01 07:25:30;;;;;;;5.80;4.05;;;10.70;73.90;;;;;;5051673;28;20026;-44
2022/05/01 07:27:57;;;;;;;5.63;3.80;;;11.10;74.40;;;;;;5035272;28;20116;-45
2022/05/01 07:30:23;;;;;;;6.80;3.95;;;11.40;72.70;;;;;;5020403;28;20029;-44
2022/05/01 07:32:50;;;;;;;5.75;3.90;;;11.60;72.10;;;;;;5035053;28;20029;-45
2022/05/01 07:35:16;;;;;;;5.03;3.55;;;11.50;71.30;;;;;;5022071;28;20030;-44
2022/05/01 07:37:44;;;;;;;4.85;3.50;;;11.10;69.60;;;;;;5030860;28;20350;-45
2022/05/01 07:40:14;;;;;;;15.35;3.55;;;10.90;70.10;;;;;;5034259;28;20033;-44
2022/05/01 07:42:41;;;;;;;5.05;2.97;;;10.60;71.10;;;;;;5034370;28;20053;-43
2022/05/01 07:45:08;;;;;;;5.15;2.85;;;10.50;72.60;;;;;;5034112;28;20434;-44
2022/05/01 07:47:36;;;;;;;6.20;3.42;;;10.40;71.90;;;;;;5018292;28;20442;-45
2022/05/01 07:50:04;;;;;;;5.53;2.88;;;10.40;71.50;;;;;;5033683;28;20029;-44
2022/05/01 07:52:29;;;;;;;8.48;3.50;;;10.50;73.20;;;;;;5026144;28;20061;-44
2022/05/01 07:54:57;;;;;;;5.78;2.85;;;10.30;72.00;;;;;;5024369;28;20022;-45
2022/05/01 07:57:26;;;;;;;5.15;2.90;;;10.20;71.10;;;;;;5022456;28;20123;-45
2022/05/01 07:59:55;;;;;;;4.95;2.97;;;10.20;71.60;;;;;;4996898;28;20041;-44
2022/05/01 08:02:21;;;;;;;6.07;2.72;;;10.00;72.10;;;;;;5023389;28;20037;-49
2022/05/01 08:04:48;;;;;;;5.80;3.17;;;10.10;72.80;;;;;;5015537;28;20296;-45
2022/05/01 08:07:15;;;;;;;3.97;2.40;;;10.00;71.70;;;;;;5029674;28;20033;-45
2022/05/01 08:09:42;;;;;;;6.03;2.88;;;10.10;71.50;;;;;;5018446;28;20026;-45
2022/05/01 08:12:08;;;;;;;3.53;2.45;;;10.20;71.20;;;;;;5020178;28;20033;-46
2022/05/01 08:14:35;;;;;;;4.90;3.00;;;10.30;70.60;;;;;;5024533;28;20025;-45
2022/05/01 08:17:01;;;;;;;4.32;2.47;;;10.20;69.30;;;;;;5019883;28;20029;-45
2022/05/01 08:22:12;;;;;;;6.38;3.85;;;10.70;69.20;;;;;;5014239;28;20048;-45
2022/05/01 08:24:39;;;;;;;5.53;2.80;;;11.70;69.40;;;;;;4997033;28;20026;-44
2022/05/01 08:27:07;;;;;;;5.75;3.08;;;12.90;68.50;;;;;;5009705;28;20029;-48
2022/05/01 08:29:38;;;;;;;4.00;2.75;;;13.90;63.20;;;;;;5021526;28;20036;-47
2022/05/01 08:32:05;;;;;;;5.32;1.88;;;14.40;59.20;;;;;;5024177;28;20367;-46
2022/05/01 08:34:33;;;;;;;4.57;1.92;;;14.20;55.40;;;;;;5022540;28;20036;-48
2022/05/01 08:36:59;;;;;;;4.65;2.25;;;13.50;56.80;;;;;;5024625;28;20029;-44
2022/05/01 08:39:26;;;;;;;4.95;2.15;;;12.90;58.50;;;;;;5007193;28;20374;-47
2022/05/01 08:41:55;;;;;;;3.75;2.45;;;12.40;61.10;;;;;;5024523;28;20031;-45
2022/05/01 08:44:30;;;;;;;4.18;2.22;;;11.90;61.80;;;;;;5028784;28;20041;-45
2022/05/01 08:47:13;;;;;;;4.63;2.22;;;11.70;63.80;;;;;;5013487;28;20116;-44
2022/05/01 08:49:42;;;;;;;4.32;2.40;;;11.50;63.20;;;;;;5005011;28;20037;-46
2022/05/01 08:52:08;;;;;;;4.82;2.20;;;11.20;64.50;;;;;;5028118;28;20431;-45
2022/05/01 08:54:36;;;;;;;5.13;1.88;;;11.20;64.90;;;;;;5022390;28;20406;-45
2022/05/01 08:57:03;;;;;;;4.85;2.28;;;11.20;64.50;;;;;;5016306;28;20030;-46
2022/05/01 08:59:34;;;;;;;4.05;2.40;;;11.60;63.30;;;;;;5024929;28;20033;-45
2022/05/01 09:02:00;;;;;;;5.78;2.60;;;11.60;64.20;;;;;;5013031;28;20026;-47
2022/05/01 09:04:28;;;;;;;5.30;2.10;;;11.70;63.90;;;;;;5014634;28;20331;-45
2022/05/01 09:06:55;;;;;;;4.93;2.20;;;11.70;63.10;;;;;;5012997;28;20485;-47
2022/05/01 09:09:23;;;;;;;3.83;1.98;;;11.90;62.70;;;;;;5014042;28;20041;-48
2022/05/01 09:14:43;;;;;;;4.63;2.20;;;12.40;60.70;;;;;;5013815;28;20075;-48
2022/05/01 09:17:21;;;;;;;5.05;2.22;;;12.60;60.90;;;;;;5026954;28;20045;-47
2022/05/01 09:19:53;;;;;;;3.28;1.90;;;12.70;61.40;;;;;;5013055;28;20703;-47
2022/05/01 09:22:20;;;;;;;4.40;2.42;;;13.00;59.60;;;;;;5027704;28;20112;-45
2022/05/01 09:24:56;;;;;;;4.00;2.10;;;12.80;60.60;;;;;;5028793;28;20450;-44
2022/05/01 09:27:32;;;;;;;4.03;2.13;;;12.70;60.80;;;;;;5013444;28;20053;-45
2022/05/01 09:30:19;;;;;;;4.07;2.17;;;12.40;61.50;;;;;;5013025;28;20355;-44
2022/05/01 09:32:47;;;;;;;5.55;2.67;;;12.20;61.50;;;;;;5013094;28;20065;-45
2022/05/01 09:35:34;;;;;;;3.83;1.77;;;12.00;62.10;;;;;;5015518;28;20034;-46
2022/05/01 09:38:19;;;;;;;3.85;2.50;;;12.20;63.10;;;;;;5033858;28;20071;-46
2022/05/01 09:40:48;;;;;;;3.90;2.10;;;12.30;61.10;;;;;;5029834;28;20021;-47
2022/05/01 09:43:41;;;;;;;3.95;2.05;;;12.70;62.40;;;;;;5015214;28;20117;-47
2022/05/01 09:46:34;;;;;;;5.55;2.90;;;13.80;60.30;;;;;;5013186;28;20034;-47
2022/05/01 09:49:19;;;;;;;3.63;1.83;;;14.30;58.30;;;;;;5012208;28;20029;-48
2022/05/01 09:51:53;;;;;;;4.32;2.33;;;15.30;54.10;;;;;;5025792;28;20051;-46
2022/05/01 09:54:29;;;;;;;4.63;2.38;;;15.80;50.40;;;;;;5034437;28;20105;-50
2022/05/01 09:57:22;;;;;;;4.10;2.00;;;14.50;51.80;;;;;;5052141;28;20059;-44
2022/05/01 09:59:51;;;;;;;2.85;1.95;;;13.80;54.50;;;;;;5048873;28;20031;-45
2022/05/01 10:02:32;;;;;;;4.65;2.13;;;13.60;56.30;;;;;;5047316;28;20518;-48
2022/05/01 10:05:06;;;;;;;4.35;1.95;;;12.90;58.40;;;;;;5051921;28;20067;-44
2022/05/01 10:07:35;;;;;;;6.57;2.53;;;12.40;59.40;;;;;;5052953;28;20024;-46
2022/05/01 10:10:07;;;;;;;6.50;2.22;;;12.20;61.30;;;;;;5049133;28;20029;-46
2022/05/01 10:12:40;;;;;;;3.92;2.13;;;11.90;62.90;;;;;;5051012;28;20033;-45
2022/05/01 10:15:08;;;;;;;3.42;1.95;;;11.70;62.90;;;;;;5051626;28;20112;-48
2022/05/01 10:17:37;;;;;;;4.60;1.80;;;11.60;63.20;;;;;;5050764;28;20521;-45
2022/05/01 10:20:04;;;;;;;4.50;2.03;;;11.70;63.70;;;;;;5032968;28;20045;-49
2022/05/01 10:22:32;;;;;;;5.63;2.58;;;11.70;62.50;;;;;;5050400;28;20037;-46
2022/05/01 10:24:58;;;;;;;3.78;1.92;;;11.80;64.10;;;;;;5052116;28;20473;-48
2022/05/01 10:27:40;;;;;;;5.00;1.70;;;12.00;63.20;;;;;;5051571;28;20427;-46
2022/05/01 10:33:29;;;;;;;5.55;1.90;;;13.40;59.70;;;;;;5050065;28;20064;-48
2022/05/01 10:36:01;;;;;;;3.25;1.40;;;14.00;57.50;;;;;;5036277;28;20027;-45
2022/05/01 10:38:48;;;;;;;2.92;1.65;;;14.40;54.70;;;;;;5051853;28;20052;-51
2022/05/01 10:41:16;;;;;;;3.08;1.52;;;14.30;56.60;;;;;;5051244;28;20025;-45
2022/05/01 10:43:54;;;;;;;3.45;1.15;;;14.30;54.50;;;;;;5051009;28;20044;-50
2022/05/01 10:46:22;;;;;;;2.17;1.35;;;13.90;55.00;;;;;;5067404;28;20115;-47
2022/05/01 10:48:49;;;;;;;4.05;2.10;;;13.80;56.50;;;;;;5051249;28;20461;-45
2022/05/01 10:51:30;;;;;;;4.80;1.65;;;13.40;57.00;;;;;;5048251;28;20080;-44
2022/05/01 10:54:13;;;;;;;5.20;1.33;;;13.70;56.70;;;;;;5030636;28;20032;-45
2022/05/01 10:56:43;;;;;;;4.70;1.83;;;13.80;56.40;;;;;;5051631;28;20040;-45
2022/05/01 10:59:46;;;;;;;2.53;1.15;;;13.90;56.90;;;;;;5049464;28;20040;-47
2022/05/01 11:02:38;;;;;;;3.05;1.10;;;13.90;56.50;;;;;;5041382;28;20366;-47
2022/05/01 11:05:09;;;;;;;4.55;2.22;;;13.90;56.50;;;;;;5037023;28;20057;-45
2022/05/01 11:07:39;;;;;;;3.53;1.33;;;14.20;57.20;;;;;;5051437;28;20029;-47
2022/05/01 11:10:08;;;;;;;;;;;14.30;54.90;;;;;;5049604;28;20021;-47
2022/05/01 11:12:36;;;;;;;2.42;1.08;;;14.20;54.60;;;;;;5014899;28;19949;-46
2022/05/01 11:15:08;;;;;;;3.38;1.00;;;13.90;54.80;;;;;;5032054;28;20041;-46
2022/05/01 11:17:36;;;;;;;3.85;1.45;;;13.70;54.70;;;;;;5034380;28;20053;-45
2022/05/01 11:20:14;;;;;;;6.10;1.92;;;13.50;55.90;;;;;;5015337;28;20052;-45
2022/05/01 11:22:45;;;;;;;2.67;1.35;;;12.90;56.40;;;;;;5040518;28;20345;-45
2022/05/01 11:25:17;;;;;;;4.63;1.67;;;12.60;57.10;;;;;;5042650;28;20117;-45
2022/05/01 11:28:03;;;;;;;4.50;1.15;;;12.40;59.20;;;;;;5031647;28;20086;-45
2022/05/01 11:30:29;;;;;;;2.75;1.52;;;12.20;58.40;;;;;;5035598;28;20030;-45
2022/05/01 11:33:09;;;;;;;3.42;1.45;;;12.10;59.80;;;;;;5036434;28;20053;-48
2022/05/01 11:36:02;;;;;;;3.85;1.50;;;12.00;58.90;;;;;;5039729;28;20512;-45
2022/05/01 11:38:39;;;;;;;2.58;1.25;;;11.90;59.30;;;;;;5042452;28;20041;-47
2022/05/01 11:41:07;;;;;;;3.55;1.15;;;12.20;60.50;;;;;;5032129;28;20366;-45
2022/05/01 11:43:35;;;;;;;7.70;1.60;;;12.50;58.80;;;;;;5053428;28;20032;-47
2022/05/01 11:46:04;;;;;;;2.72;1.63;;;12.60;59.50;;;;;;5054423;28;20021;-45
2022/05/01 11:48:33;;;;;;;3.13;1.27;;;13.00;58.60;;;;;;5036233;28;20044;-45
2022/05/01 11:51:00;;;;;;;;;;;13.30;57.30;;;;;;5041406;28;20514;-47
2022/05/01 11:53:30;;;;;;;3.35;1.38;;;13.50;57.70;;;;;;5054225;28;19917;-46
2022/05/01 12:04:49;;;;;;;4.03;1.40;;;13.20;55.60;;;;;;5045623;28;20155;-45
2022/05/01 12:07:18;;;;;;;2.63;1.25;;;13.10;57.50;;;;;;5041076;28;20029;-46
2022/05/01 12:09:51;;;;;;;4.60;1.58;;;13.10;54.50;;;;;;5046585;28;20029;-45
2022/05/01 12:12:27;;;;;;;2.90;1.25;;;12.60;56.30;;;;;;5054888;28;20462;-47
2022/05/01 12:14:54;;;;;;;2.85;1.33;;;12.40;57.50;;;;;;5049997;28;20053;-46
2022/05/01 12:17:24;;;;;;;1.83;0.88;;;12.50;59.40;;;;;;5034733;28;20051;-45
2022/05/01 12:19:52;;;;;;;3.10;1.50;;;12.40;57.60;;;;;;5034644;28;20014;-45
2022/05/01 12:22:23;;;;;;;5.35;1.52;;;12.40;57.80;;;;;;5037530;28;20491;-45
2022/05/01 12:24:54;;;;;;;3.03;1.23;;;12.20;59.40;;;;;;5034713;28;20017;-46
2022/05/01 12:27:28;;;;;;;3.15;1.20;;;12.00;58.00;;;;;;5037065;28;20412;-45
2022/05/01 12:29:56;;;;;;;3.80;1.30;;;12.00;58.70;;;;;;5031423;28;20064;-45
2022/05/01 12:32:24;;;;;;;5.05;1.45;;;12.50;60.10;;;;;;5031665;28;20140;-45
2022/05/01 12:34:56;;;;;;;2.97;1.02;;;12.60;56.60;;;;;;5037756;28;20106;-45
2022/05/01 12:37:30;;;;;;;2.35;1.10;;;12.60;57.60;;;;;;5042074;28;20029;-44
2022/05/01 12:40:02;;;;;;;2.00;1.13;;;12.50;58.20;;;;;;5048163;28;20040;-46
2022/05/01 12:45:53;;;;;;;2.20;1.05;;;12.70;57.70;;;;;;5039113;28;20028;-45
2022/05/01 12:48:20;;;;;;;2.88;1.10;;;12.80;56.20;;;;;;5049399;28;20069;-45
2022/05/01 12:50:51;;;;;;;3.33;1.48;;;12.70;57.20;;;;;;5033525;28;20107;-45
2022/05/01 12:53:21;;;;;;;4.00;1.70;;;12.50;57.30;;;;;;5016213;28;20056;-45
2022/05/01 12:55:48;;;;;;;4.85;1.27;;;12.70;58.30;;;;;;5014445;28;20092;-44
2022/05/01 12:58:32;;;;;;;3.00;0.90;;;12.80;57.00;;;;;;5013487;28;20049;-45
2022/05/01 13:01:03;;;;;;;1.85;0.98;;;12.80;59.10;;;;;;5031799;28;20048;-45
2022/05/01 13:03:39;;;;;;;2.40;1.15;;;12.80;56.40;;;;;;5014331;28;20371;-45
2022/05/01 13:06:09;;;;;;;1.63;1.08;;;12.90;55.60;;;;;;5042297;28;20037;-45
2022/05/01 13:08:39;;;;;;;4.63;1.33;;;12.90;57.20;;;;;;4994630;28;20029;-46
2022/05/01 13:11:36;;;;;;;3.10;1.33;;;12.90;57.00;;;;;;5000599;28;20555;-44
2022/05/01 13:14:05;;;;;;;2.78;1.30;;;13.00;56.50;;;;;;5005089;28;20030;-45
2022/05/01 13:16:31;;;;;;;3.95;1.33;;;13.00;56.60;;;;;;5013285;28;20362;-45
2022/05/01 13:19:08;;;;;;;2.17;1.30;;;13.10;58.00;;;;;;5013379;28;20030;-46
2022/05/01 13:21:38;;;;;;;2.13;1.15;;;12.90;56.40;;;;;;5042746;28;20447;-45
2022/05/01 13:24:08;;;;;;;3.80;1.55;;;12.90;59.10;;;;;;5013796;28;20354;-48
2022/05/01 13:26:36;;;;;;;2.05;1.13;;;12.80;58.60;;;;;;5044085;28;20510;-48
2022/05/01 13:29:08;;;;;;;3.90;1.10;;;12.80;57.50;;;;;;5012791;28;20173;-45
2022/05/01 13:31:36;;;;;;;3.83;1.55;;;12.90;59.10;;;;;;5013394;28;20437;-44
2022/05/01 13:34:06;;;;;;;2.53;1.27;;;12.90;57.60;;;;;;5012888;28;20469;-44
2022/05/01 13:36:32;;;;;;;2.70;1.42;;;13.00;57.60;;;;;;5011310;28;20037;-46